Time;durP1;ratioP1;P1;durP2;ratioP2;P2;SDS_P1;SDS_P2;PMS_P1;PMS_P2;Temp;Humidity;BMP_temperature;BMP_pressure;BME280_temperature;BME280_humidity;BME280_pressure;Samples;Min_cycle;Max_cycle;Signal;HPM_P1;HPM_P2
2023/05/17 00:00:50;;;;;;;0.83;0.83;;;;;6.30;96309.00;;;;5073723;28;20195;-55
2023/05/17 00:03:17;;;;;;;0.70;0.70;;;;;6.10;96314.00;;;;5073792;28;20654;-55
2023/05/17 00:05:45;;;;;;;0.90;0.90;;;;;6.10;96314.00;;;;5074257;28;20720;-55
2023/05/17 00:08:12;;;;;;;1.40;1.30;;;;;6.00;96319.00;;;;5073499;28;20230;-55
2023/05/17 00:10:42;;;;;;;2.53;1.27;;;;;6.10;96326.00;;;;5073561;28;20270;-55
2023/05/17 00:13:09;;;;;;;1.07;1.07;;;;;6.00;96320.00;;;;5074181;28;20191;-55
2023/05/17 00:15:37;;;;;;;0.60;0.60;;;;;6.00;96326.00;;;;5073790;28;20197;-55
2023/05/17 00:18:04;;;;;;;1.80;1.43;;;;;6.00;96319.00;;;;5073617;28;20306;-55
2023/05/17 00:20:32;;;;;;;0.70;0.70;;;;;5.90;96313.00;;;;5074027;28;20553;-54
2023/05/17 00:22:59;;;;;;;0.50;0.50;;;;;5.90;96321.00;;;;5073536;28;20196;-55
2023/05/17 00:25:27;;;;;;;0.87;0.87;;;;;5.80;96325.00;;;;5074240;28;20668;-55
2023/05/17 00:27:55;;;;;;;2.97;1.30;;;;;5.80;96335.00;;;;5074100;28;20234;-60
2023/05/17 00:30:23;;;;;;;0.60;0.60;;;;;5.80;96335.00;;;;5073432;28;20688;-55
2023/05/17 00:32:50;;;;;;;0.63;0.63;;;;;5.80;96330.00;;;;5073626;28;20199;-55
2023/05/17 00:35:18;;;;;;;0.80;0.80;;;;;5.60;96334.00;;;;5073599;28;20257;-54
2023/05/17 00:37:46;;;;;;;0.50;0.50;;;;;5.60;96330.00;;;;5072293;28;20215;-54
2023/05/17 00:40:15;;;;;;;1.10;1.10;;;;;5.60;96337.00;;;;5073289;28;20233;-55
2023/05/17 00:42:43;;;;;;;0.70;0.70;;;;;5.60;96341.00;;;;5073241;28;20215;-54
2023/05/17 00:45:12;;;;;;;0.87;0.87;;;;;5.60;96343.00;;;;5073312;28;20198;-54
2023/05/17 00:47:39;;;;;;;0.80;0.80;;;;;5.60;96342.00;;;;5073075;28;20234;-54
2023/05/17 00:50:07;;;;;;;1.90;1.20;;;;;5.70;96350.00;;;;5073518;28;20262;-55
2023/05/17 00:52:36;;;;;;;0.70;0.70;;;;;5.60;96344.00;;;;5073951;28;20203;-54
2023/05/17 00:55:04;;;;;;;0.93;0.93;;;;;5.40;96351.00;;;;5073449;28;20611;-54
2023/05/17 00:57:32;;;;;;;0.73;0.73;;;;;5.50;96352.00;;;;5073312;28;20286;-55
2023/05/17 00:59:59;;;;;;;0.80;0.80;;;;;5.40;96347.00;;;;5073075;28;20254;-55
2023/05/17 01:02:28;;;;;;;0.63;0.63;;;;;5.30;96348.00;;;;5073035;28;20665;-54
2023/05/17 01:04:55;;;;;;;0.80;0.80;;;;;5.30;96349.00;;;;5073353;28;20214;-54
2023/05/17 01:07:23;;;;;;;11.03;1.47;;;;;5.40;96347.00;;;;5073304;28;20198;-55
2023/05/17 01:09:50;;;;;;;0.70;0.70;;;;;5.40;96355.00;;;;5073233;28;20183;-54
2023/05/17 01:12:32;;;;;;;0.80;0.80;;;;;5.40;96355.00;;;;5073373;28;20685;-55
2023/05/17 01:15:08;;;;;;;2.00;1.00;;;;;5.40;96363.00;;;;5073007;28;20183;-54
2023/05/17 01:17:45;;;;;;;0.60;0.60;;;;;5.20;96367.00;;;;5073143;28;20209;-55
2023/05/17 01:20:18;;;;;;;0.70;0.70;;;;;5.20;96362.00;;;;5072990;28;20190;-55
2023/05/17 01:22:51;;;;;;;1.00;1.00;;;;;5.30;96357.00;;;;5072854;28;20189;-54
2023/05/17 01:25:36;;;;;;;0.70;0.70;;;;;5.30;96358.00;;;;5073104;28;20695;-54
2023/05/17 01:28:10;;;;;;;1.27;0.83;;;;;5.30;96365.00;;;;5072637;28;20690;-53
2023/05/17 01:30:39;;;;;;;0.77;0.77;;;;;5.20;96369.00;;;;5073059;28;20209;-54
2023/05/17 01:33:08;;;;;;;3.43;3.13;;;;;5.10;96364.00;;;;5072642;28;20198;-53
2023/05/17 01:35:36;;;;;;;1.43;1.33;;;;;5.10;96362.00;;;;5072821;28;20195;-53
2023/05/17 01:38:03;;;;;;;0.63;0.63;;;;;5.10;96364.00;;;;5072864;28;20207;-54
2023/05/17 01:40:33;;;;;;;28.43;1.47;;;;;5.10;96364.00;;;;5072910;28;20191;-53
2023/05/17 01:43:17;;;;;;;0.60;0.60;;;;;5.10;96366.00;;;;5071334;28;20202;-54
2023/05/17 01:45:52;;;;;;;0.90;0.90;;;;;5.10;96342.00;;;;5073203;28;20241;-54
2023/05/17 01:48:23;;;;;;;0.70;0.70;;;;;5.20;96376.00;;;;5073158;28;20233;-54
2023/05/17 01:50:54;;;;;;;0.80;0.80;;;;;5.00;96376.00;;;;5076762;28;20178;-54
2023/05/17 01:53:30;;;;;;;0.63;0.63;;;;;5.00;96367.00;;;;5076412;28;20226;-54
2023/05/17 01:56:01;;;;;;;0.70;0.70;;;;;5.10;96371.00;;;;5076684;28;20183;-54
2023/05/17 01:58:34;;;;;;;0.80;0.80;;;;;5.00;96380.00;;;;5076256;28;20217;-54
2023/05/17 02:01:03;;;;;;;0.60;0.60;;;;;5.00;96376.00;;;;5076367;28;20190;-54
2023/05/17 02:03:30;;;;;;;0.60;0.60;;;;;5.10;96365.00;;;;5074963;28;20206;-54
2023/05/17 02:05:58;;;;;;;1.00;1.00;;;;;5.00;96371.00;;;;5076165;28;20567;-54
2023/05/17 02:08:25;;;;;;;0.70;0.70;;;;;5.20;96374.00;;;;5075750;28;20219;-54
2023/05/17 02:10:53;;;;;;;0.70;0.70;;;;;5.10;96388.00;;;;5075837;28;20188;-54
2023/05/17 02:13:20;;;;;;;0.80;0.80;;;;;5.10;96376.00;;;;5075964;28;20202;-53
2023/05/17 02:15:49;;;;;;;0.70;0.70;;;;;5.00;96387.00;;;;5075811;28;20220;-54
2023/05/17 02:18:16;;;;;;;0.80;0.80;;;;;4.90;96385.00;;;;5075928;28;20215;-54
2023/05/17 02:20:44;;;;;;;0.60;0.60;;;;;5.00;96386.00;;;;5075971;28;20599;-54
2023/05/17 02:23:11;;;;;;;0.93;0.93;;;;;5.00;96381.00;;;;5075673;28;20191;-54
2023/05/17 02:25:39;;;;;;;1.13;1.13;;;;;5.00;96386.00;;;;5075666;28;20670;-54
2023/05/17 02:28:06;;;;;;;0.60;0.60;;;;;5.00;96376.00;;;;5074955;28;20238;-54
2023/05/17 02:30:34;;;;;;;0.87;0.87;;;;;4.90;96378.00;;;;5075527;28;20261;-54
2023/05/17 02:33:02;;;;;;;0.70;0.70;;;;;4.90;96377.00;;;;5075489;28;20200;-54
2023/05/17 02:35:30;;;;;;;1.03;1.03;;;;;4.90;96379.00;;;;5075378;28;20661;-54
2023/05/17 02:37:57;;;;;;;0.70;0.70;;;;;5.00;96386.00;;;;5075606;28;20297;-53
2023/05/17 02:40:25;;;;;;;1.10;1.10;;;;;4.90;96389.00;;;;5075314;28;20196;-54
2023/05/17 02:42:52;;;;;;;0.70;0.70;;;;;4.80;96385.00;;;;5075818;28;20199;-54
2023/05/17 02:45:19;;;;;;;0.80;0.80;;;;;4.80;96383.00;;;;5075314;28;20191;-54
2023/05/17 02:47:47;;;;;;;0.70;0.70;;;;;4.80;96384.00;;;;5075239;28;20219;-53
2023/05/17 02:50:16;;;;;;;1.07;1.07;;;;;4.80;96382.00;;;;5075129;28;20191;-54
2023/05/17 02:52:43;;;;;;;0.60;0.60;;;;;4.80;96379.00;;;;5074847;28;20206;-54
2023/05/17 02:55:10;;;;;;;1.07;1.03;;;;;4.80;96383.00;;;;5075266;28;20596;-54
2023/05/17 02:57:38;;;;;;;0.60;0.60;;;;;4.80;96384.00;;;;5075288;28;20582;-54
2023/05/17 03:00:07;;;;;;;0.93;0.93;;;;;4.70;96382.00;;;;5073881;28;20201;-54
2023/05/17 03:02:35;;;;;;;0.87;0.87;;;;;4.70;96384.00;;;;5074869;28;20192;-54
2023/05/17 03:05:02;;;;;;;0.90;0.90;;;;;4.60;96381.00;;;;5074697;28;20236;-54
2023/05/17 03:07:31;;;;;;;0.70;0.70;;;;;4.70;96389.00;;;;5074515;28;20195;-54
2023/05/17 03:09:58;;;;;;;0.87;0.87;;;;;4.80;96388.00;;;;5074777;28;20207;-54
2023/05/17 03:12:25;;;;;;;1.07;1.07;;;;;4.70;96391.00;;;;5074851;28;20205;-54
2023/05/17 03:14:53;;;;;;;1.00;1.00;;;;;4.60;96397.00;;;;5073378;28;20251;-54
2023/05/17 03:17:20;;;;;;;1.00;1.00;;;;;4.60;96397.00;;;;5074440;28;20197;-54
2023/05/17 03:19:48;;;;;;;2.30;1.33;;;;;4.50;96399.00;;;;5074701;28;20217;-57
2023/05/17 03:22:15;;;;;;;0.80;0.80;;;;;4.50;96398.00;;;;5074376;28;20196;-54
2023/05/17 03:24:44;;;;;;;0.77;0.77;;;;;4.50;96402.00;;;;5074602;28;20195;-54
2023/05/17 03:27:11;;;;;;;0.97;0.97;;;;;4.40;96395.00;;;;5074100;28;20207;-54
2023/05/17 03:29:39;;;;;;;0.70;0.70;;;;;4.30;96412.00;;;;5074156;28;20217;-54
2023/05/17 03:32:08;;;;;;;1.03;0.83;;;;;4.40;96406.00;;;;5074169;28;20197;-54
2023/05/17 03:34:35;;;;;;;0.67;0.67;;;;;4.50;96398.00;;;;5074165;28;20252;-54
2023/05/17 03:37:02;;;;;;;1.07;1.07;;;;;4.50;96405.00;;;;5073999;28;20678;-54
2023/05/17 03:39:30;;;;;;;0.60;0.60;;;;;4.40;96406.00;;;;5074151;28;20286;-54
2023/05/17 03:41:59;;;;;;;0.60;0.60;;;;;4.40;96410.00;;;;5074007;28;20723;-54
2023/05/17 03:44:26;;;;;;;0.70;0.70;;;;;4.40;96409.00;;;;5074972;28;20516;-54
2023/05/17 03:46:54;;;;;;;0.90;0.90;;;;;4.50;96404.00;;;;5074630;28;20195;-54
2023/05/17 03:49:21;;;;;;;0.67;0.67;;;;;4.40;96414.00;;;;5073805;28;20222;-54
2023/05/17 03:51:48;;;;;;;0.80;0.80;;;;;4.40;96404.00;;;;5074712;28;20295;-54
2023/05/17 03:54:16;;;;;;;0.60;0.60;;;;;4.40;96409.00;;;;5074056;28;20209;-54
2023/05/17 03:56:45;;;;;;;0.70;0.70;;;;;4.40;96415.00;;;;5073711;28;20187;-54
2023/05/17 03:59:14;;;;;;;0.70;0.70;;;;;4.40;96418.00;;;;5073757;28;20299;-54
2023/05/17 04:01:44;;;;;;;0.80;0.80;;;;;4.20;96420.00;;;;5073632;28;20200;-54
2023/05/17 04:04:11;;;;;;;0.90;0.90;;;;;4.20;96422.00;;;;5073980;28;20197;-55
2023/05/17 04:06:39;;;;;;;0.80;0.80;;;;;4.20;96423.00;;;;5073582;28;20192;-55
2023/05/17 04:09:09;;;;;;;1.20;1.10;;;;;4.30;96425.00;;;;5073456;28;20317;-55
2023/05/17 04:11:37;;;;;;;0.63;0.63;;;;;4.30;96444.00;;;;5073333;28;20188;-55
2023/05/17 04:14:05;;;;;;;0.70;0.70;;;;;4.40;96433.00;;;;5073891;28;20187;-55
2023/05/17 04:16:34;;;;;;;0.87;0.87;;;;;4.50;96433.00;;;;5073457;28;20184;-55
2023/05/17 04:19:02;;;;;;;1.23;1.23;;;;;4.60;96441.00;;;;5073365;28;20213;-54
2023/05/17 04:21:30;;;;;;;0.80;0.80;;;;;4.40;96431.00;;;;5073939;28;20191;-54
2023/05/17 04:23:57;;;;;;;0.63;0.63;;;;;4.40;96429.00;;;;5073665;28;20191;-55
2023/05/17 04:26:25;;;;;;;1.10;1.10;;;;;4.40;96444.00;;;;5073611;28;20672;-54
2023/05/17 04:28:53;;;;;;;0.70;0.70;;;;;4.40;96445.00;;;;5073211;28;20220;-55
2023/05/17 04:31:21;;;;;;;0.90;0.90;;;;;4.50;96442.00;;;;5073376;28;20658;-55
2023/05/17 04:33:50;;;;;;;0.80;0.80;;;;;4.60;96445.00;;;;5073306;28;20226;-54
2023/05/17 04:36:17;;;;;;;1.00;0.90;;;;;4.60;96444.00;;;;5073610;28;20203;-54
2023/05/17 04:38:45;;;;;;;1.17;1.00;;;;;4.60;96462.00;;;;5073115;28;20211;-54
2023/05/17 04:41:12;;;;;;;0.67;0.63;;;;;4.70;96455.00;;;;5073630;28;20728;-55
2023/05/17 04:43:40;;;;;;;0.80;0.80;;;;;5.10;96460.00;;;;5073097;28;20192;-54
2023/05/17 04:46:08;;;;;;;1.10;1.00;;;;;5.50;96458.00;;;;5073096;28;20314;-54
2023/05/17 04:48:37;;;;;;;0.80;0.80;;;;;5.50;96461.00;;;;5072835;28;20218;-54
2023/05/17 04:51:06;;;;;;;0.77;0.77;;;;;5.60;96469.00;;;;5073057;28;20194;-55
2023/05/17 04:53:34;;;;;;;1.10;1.10;;;;;5.80;96468.00;;;;5073073;28;20199;-55
2023/05/17 04:56:02;;;;;;;0.70;0.70;;;;;5.80;96469.00;;;;5073317;28;20189;-54
2023/05/17 04:58:30;;;;;;;0.93;0.93;;;;;5.90;96470.00;;;;5073486;28;20211;-55
2023/05/17 05:00:58;;;;;;;0.70;0.70;;;;;5.90;96469.00;;;;5073020;28;20204;-55
2023/05/17 05:03:26;;;;;;;0.70;0.70;;;;;5.80;96477.00;;;;5073252;28;20202;-54
2023/05/17 05:05:53;;;;;;;0.63;0.63;;;;;5.50;96475.00;;;;5073224;28;20198;-54
2023/05/17 05:08:22;;;;;;;0.73;0.73;;;;;5.60;96473.00;;;;5072888;28;20229;-54
2023/05/17 05:10:50;;;;;;;0.80;0.80;;;;;5.50;96473.00;;;;5072791;28;20219;-55
2023/05/17 05:13:17;;;;;;;0.97;0.97;;;;;5.40;96483.00;;;;5072956;28;20655;-55
2023/05/17 05:15:45;;;;;;;0.87;0.87;;;;;5.30;96471.00;;;;5072864;28;20683;-54
2023/05/17 05:18:13;;;;;;;1.83;1.73;;;;;5.30;96492.00;;;;5072721;28;20297;-54
2023/05/17 05:20:40;;;;;;;0.90;0.90;;;;;5.50;96493.00;;;;5071472;28;20616;-55
2023/05/17 05:23:08;;;;;;;1.13;1.13;;;;;5.50;96494.00;;;;5072479;28;20286;-54
2023/05/17 05:25:38;;;;;;;0.73;0.73;;;;;5.50;96490.00;;;;5076763;28;20278;-55
2023/05/17 05:28:06;;;;;;;0.70;0.70;;;;;5.60;96501.00;;;;5075409;28;20215;-54
2023/05/17 05:30:33;;;;;;;0.60;0.60;;;;;5.60;96499.00;;;;5076523;28;20221;-54
2023/05/17 05:33:01;;;;;;;0.70;0.70;;;;;5.70;96502.00;;;;5076492;28;20666;-54
2023/05/17 05:35:28;;;;;;;17.30;1.40;;;;;5.90;96517.00;;;;5076514;28;20722;-54
2023/05/17 05:37:57;;;;;;;0.80;0.80;;;;;5.90;96505.00;;;;5076460;28;20388;-54
2023/05/17 05:40:24;;;;;;;0.70;0.70;;;;;5.90;96510.00;;;;5076616;28;20230;-54
2023/05/17 05:42:53;;;;;;;0.60;0.60;;;;;6.00;96504.00;;;;5076392;28;20196;-54
2023/05/17 05:45:21;;;;;;;0.53;0.53;;;;;6.10;96509.00;;;;5077135;28;20546;-54
2023/05/17 05:47:48;;;;;;;0.70;0.70;;;;;6.10;96516.00;;;;5076196;28;20298;-55
2023/05/17 05:50:16;;;;;;;0.90;0.90;;;;;6.30;96511.00;;;;5076370;28;20226;-54
2023/05/17 05:52:43;;;;;;;1.00;1.00;;;;;6.30;96530.00;;;;5075012;28;20750;-55
2023/05/17 05:55:11;;;;;;;0.60;0.60;;;;;6.50;96515.00;;;;5076152;28;20260;-55
2023/05/17 05:57:38;;;;;;;1.07;1.07;;;;;6.70;96526.00;;;;5076420;28;20635;-55
2023/05/17 06:00:08;;;;;;;0.73;0.73;;;;;6.80;96531.00;;;;5076137;28;20190;-54
2023/05/17 06:02:37;;;;;;;0.70;0.70;;;;;6.90;96526.00;;;;5076628;28;20267;-55
2023/05/17 06:05:05;;;;;;;0.60;0.60;;;;;7.00;96532.00;;;;5076078;28;20196;-55
2023/05/17 06:07:33;;;;;;;1.00;1.00;;;;;7.00;96544.00;;;;5075798;28;20305;-55
2023/05/17 06:10:00;;;;;;;1.53;1.43;;;;;7.40;96536.00;;;;5076150;28;20565;-55
2023/05/17 06:12:28;;;;;;;0.53;0.53;;;;;7.70;96526.00;;;;5075962;28;20196;-55
2023/05/17 06:14:55;;;;;;;0.73;0.73;;;;;7.90;96537.00;;;;5074484;28;20195;-55
2023/05/17 06:17:24;;;;;;;0.90;0.90;;;;;7.80;96531.00;;;;5075652;28;20192;-55
2023/05/17 06:19:51;;;;;;;1.90;1.80;;;;;8.10;96537.00;;;;5075707;28;20210;-54
2023/05/17 06:22:20;;;;;;;1.60;1.50;;;;;8.10;96537.00;;;;5075685;28;20197;-56
2023/05/17 06:25:11;;;;;;;0.93;0.93;;;;;8.30;96534.00;;;;5056730;28;20580;-56
2023/05/17 06:27:39;;;;;;;0.73;0.73;;;;;8.50;96534.00;;;;5075570;28;20789;-55
2023/05/17 06:30:08;;;;;;;0.80;0.80;;;;;8.50;96537.00;;;;5075387;28;20266;-55
2023/05/17 06:32:37;;;;;;;3.03;0.87;;;;;8.50;96549.00;;;;5075636;28;20599;-54
2023/05/17 06:35:05;;;;;;;2.10;1.60;;;;;8.60;96549.00;;;;5074042;28;20249;-54
2023/05/17 06:37:33;;;;;;;0.60;0.60;;;;;8.90;96546.00;;;;5075825;28;20211;-54
2023/05/17 06:40:05;;;;;;;0.70;0.70;;;;;9.00;96548.00;;;;5075240;28;20219;-56
2023/05/17 06:42:32;;;;;;;1.17;1.17;;;;;9.20;96559.00;;;;5075453;28;20172;-56
2023/05/17 06:45:00;;;;;;;1.07;1.07;;;;;9.20;96560.00;;;;5075230;28;20196;-55
2023/05/17 06:47:27;;;;;;;1.23;1.23;;;;;9.20;96549.00;;;;5075447;28;20199;-55
2023/05/17 06:49:56;;;;;;;0.50;0.50;;;;;9.40;96547.00;;;;5075111;28;20222;-56
2023/05/17 06:52:23;;;;;;;0.60;0.60;;;;;9.60;96544.00;;;;5075257;28;20270;-56
2023/05/17 06:54:51;;;;;;;1.40;1.40;;;;;9.50;96550.00;;;;5075813;28;20195;-56
2023/05/17 06:57:19;;;;;;;1.10;1.10;;;;;9.60;96552.00;;;;5075021;28;20202;-56
2023/05/17 06:59:46;;;;;;;1.23;1.07;;;;;9.90;96550.00;;;;5075539;28;20675;-56
2023/05/17 07:02:14;;;;;;;0.80;0.80;;;;;9.80;96541.00;;;;5074506;28;20206;-56
2023/05/17 07:04:41;;;;;;;0.83;0.83;;;;;10.10;96554.00;;;;5074910;28;20226;-56
2023/05/17 07:07:10;;;;;;;1.17;1.17;;;;;10.10;96549.00;;;;5075194;28;20194;-56
2023/05/17 07:09:38;;;;;;;0.70;0.70;;;;;10.30;96547.00;;;;5074953;28;20285;-56
2023/05/17 07:12:07;;;;;;;2.63;1.00;;;;;10.50;96548.00;;;;5074933;28;20557;-56
2023/05/17 07:14:34;;;;;;;0.70;0.70;;;;;10.50;96558.00;;;;5074720;28;20262;-56
2023/05/17 07:17:01;;;;;;;0.93;0.93;;;;;10.30;96557.00;;;;5074588;28;20194;-56
2023/05/17 07:19:29;;;;;;;1.10;1.10;;;;;10.20;96548.00;;;;5074581;28;20211;-56
2023/05/17 07:21:56;;;;;;;0.97;0.97;;;;;10.20;96557.00;;;;5074741;28;20199;-55
2023/05/17 07:24:25;;;;;;;1.83;1.73;;;;;10.40;96556.00;;;;5074466;28;20191;-56
2023/05/17 07:26:53;;;;;;;1.10;1.10;;;;;10.40;96556.00;;;;5074353;28;20677;-56
2023/05/17 07:29:20;;;;;;;1.20;1.13;;;;;10.60;96548.00;;;;5074334;28;20211;-56
2023/05/17 07:31:48;;;;;;;1.13;1.13;;;;;10.60;96550.00;;;;5074312;28;20184;-56
2023/05/17 07:34:15;;;;;;;1.83;1.73;;;;;10.50;96569.00;;;;5074393;28;20194;-56
2023/05/17 07:36:43;;;;;;;0.50;0.50;;;;;10.30;96565.00;;;;5073032;28;20191;-56
2023/05/17 07:39:10;;;;;;;0.80;0.80;;;;;10.40;96576.00;;;;5074289;28;20290;-56
2023/05/17 07:41:39;;;;;;;1.13;1.00;;;;;10.40;96570.00;;;;5072870;28;20724;-56
2023/05/17 07:44:06;;;;;;;0.80;0.80;;;;;10.40;96571.00;;;;5072942;28;20195;-55
2023/05/17 07:46:34;;;;;;;0.83;0.83;;;;;10.60;96562.00;;;;5073741;28;20187;-56
2023/05/17 07:49:01;;;;;;;1.37;1.00;;;;;10.70;96568.00;;;;5074292;28;20215;-56
2023/05/17 07:51:30;;;;;;;0.83;0.83;;;;;10.50;96571.00;;;;5074222;28;20230;-56
2023/05/17 07:53:57;;;;;;;1.00;1.00;;;;;10.70;96577.00;;;;5072722;28;20199;-56
2023/05/17 07:56:25;;;;;;;0.50;0.50;;;;;10.90;96571.00;;;;5074015;28;20200;-54
2023/05/17 07:58:54;;;;;;;0.90;0.90;;;;;11.10;96576.00;;;;5073985;28;20211;-55
2023/05/17 08:01:22;;;;;;;1.40;1.17;;;;;11.00;96573.00;;;;5073812;28;20184;-55
2023/05/17 08:03:49;;;;;;;1.57;1.47;;;;;11.00;96579.00;;;;5074036;28;20250;-55
2023/05/17 08:06:17;;;;;;;0.60;0.60;;;;;10.90;96580.00;;;;5072489;28;20195;-54
2023/05/17 08:08:45;;;;;;;1.67;1.20;;;;;10.80;96581.00;;;;5085817;22;20211;-54
2023/05/17 08:11:13;;;;;;;1.13;1.13;;;;;10.90;96578.00;;;;5053841;28;20287;-54
2023/05/17 08:13:41;;;;;;;0.50;0.50;;;;;11.10;96574.00;;;;5053549;28;20299;-54
2023/05/17 08:16:11;;;;;;;0.70;0.70;;;;;11.40;96572.00;;;;5053589;28;20196;-56
2023/05/17 08:18:38;;;;;;;1.50;1.27;;;;;11.60;96587.00;;;;5053826;28;20195;-59
2023/05/17 08:21:06;;;;;;;0.70;0.70;;;;;11.80;96579.00;;;;5053737;28;20555;-56
2023/05/17 08:23:33;;;;;;;1.90;1.80;;;;;11.60;96585.00;;;;5054023;28;20246;-54
2023/05/17 08:26:01;;;;;;;0.80;0.80;;;;;11.60;96594.00;;;;5053659;28;20563;-54
2023/05/17 08:28:28;;;;;;;0.70;0.70;;;;;11.60;96582.00;;;;5053553;28;20194;-54
2023/05/17 08:30:56;;;;;;;1.07;1.07;;;;;11.70;96583.00;;;;5053235;28;20291;-54
2023/05/17 08:33:24;;;;;;;0.97;0.97;;;;;11.80;96583.00;;;;5053314;28;20197;-54
2023/05/17 08:35:54;;;;;;;1.00;1.00;;;;;12.00;96577.00;;;;5053520;28;20567;-58
2023/05/17 08:38:21;;;;;;;1.07;1.00;;;;;12.30;96577.00;;;;5035679;28;20196;-55
2023/05/17 08:40:54;;;;;;;0.80;0.80;;;;;12.30;96561.00;;;;5053207;28;20187;-55
2023/05/17 08:43:24;;;;;;;0.63;0.63;;;;;12.30;96576.00;;;;5053462;28;20237;-54
2023/05/17 08:45:53;;;;;;;0.87;0.87;;;;;12.50;96573.00;;;;5035260;28;20295;-54
2023/05/17 08:48:20;;;;;;;0.73;0.73;;;;;12.50;96576.00;;;;5053172;28;20196;-54
2023/05/17 08:50:53;;;;;;;0.90;0.90;;;;;12.20;96575.00;;;;5053007;28;20709;-54
2023/05/17 08:53:20;;;;;;;0.70;0.70;;;;;11.60;96581.00;;;;5053315;28;20555;-54
2023/05/17 08:55:50;;;;;;;0.90;0.90;;;;;11.50;96576.00;;;;5053021;28;20663;-54
2023/05/17 08:58:21;;;;;;;0.77;0.77;;;;;11.50;96581.00;;;;5054026;28;20202;-54
2023/05/17 09:00:50;;;;;;;1.23;1.17;;;;;11.60;96580.00;;;;5057473;28;20176;-54
2023/05/17 09:03:21;;;;;;;3.57;1.53;;;;;11.50;96587.00;;;;5057345;28;20192;-53
2023/05/17 09:05:52;;;;;;;3.03;0.93;;;;;11.50;96585.00;;;;5057594;28;20191;-54
2023/05/17 09:08:21;;;;;;;2.97;1.53;;;;;11.40;96583.00;;;;5057125;28;20546;-55
2023/05/17 09:10:49;;;;;;;1.00;1.00;;;;;11.60;96587.00;;;;5057151;28;20208;-55
2023/05/17 09:13:16;;;;;;;4.90;1.93;;;;;11.70;96589.00;;;;5056983;28;20196;-55
2023/05/17 09:15:45;;;;;;;23.00;1.43;;;;;11.80;96590.00;;;;5057070;28;20596;-55
2023/05/17 09:18:13;;;;;;;0.57;0.57;;;;;11.80;96582.00;;;;5057141;28;20196;-55
2023/05/17 09:20:40;;;;;;;0.80;0.80;;;;;11.90;96583.00;;;;5056758;28;20212;-55
2023/05/17 09:23:12;;;;;;;1.07;1.07;;;;;12.10;96576.00;;;;5057042;28;20195;-55
2023/05/17 09:25:46;;;;;;;0.93;0.93;;;;;12.00;96580.00;;;;5056770;28;20191;-55
2023/05/17 09:28:13;;;;;;;0.77;0.77;;;;;12.10;96591.00;;;;5056768;28;20658;-55
2023/05/17 09:30:41;;;;;;;1.00;0.93;;;;;12.00;96592.00;;;;5057109;28;20234;-55
2023/05/17 09:33:10;;;;;;;3.40;1.87;;;;;12.20;96580.00;;;;5056627;28;20196;-55
2023/05/17 09:35:38;;;;;;;0.73;0.73;;;;;12.20;96592.00;;;;5056679;28;20238;-55
2023/05/17 09:38:07;;;;;;;0.67;0.67;;;;;12.20;96591.00;;;;5056577;28;20196;-55
2023/05/17 09:40:39;;;;;;;0.90;0.90;;;;;12.10;96595.00;;;;5057103;28;20208;-56
2023/05/17 09:43:07;;;;;;;2.33;1.50;;;;;12.00;96596.00;;;;5056507;28;20188;-55
2023/05/17 09:45:34;;;;;;;0.73;0.73;;;;;12.00;96594.00;;;;5056654;28;20204;-55
2023/05/17 09:48:13;;;;;;;0.80;0.80;;;;;12.00;96599.00;;;;5056382;28;20194;-55
2023/05/17 09:50:45;;;;;;;1.00;1.00;;;;;11.90;96592.00;;;;5056892;28;20219;-55
2023/05/17 09:53:29;;;;;;;0.70;0.70;;;;;12.00;96596.00;;;;5056254;28;20713;-55
2023/05/17 09:55:59;;;;;;;1.07;1.07;;;;;12.20;96593.00;;;;5054680;28;20226;-55
2023/05/17 09:58:27;;;;;;;1.10;1.10;;;;;12.10;96585.00;;;;5056131;28;20188;-55
2023/05/17 10:00:59;;;;;;;0.80;0.80;;;;;12.30;96589.00;;;;5038616;28;20216;-55
2023/05/17 10:03:30;;;;;;;2.10;1.03;;;;;12.40;96589.00;;;;5056205;28;20241;-55
2023/05/17 10:05:58;;;;;;;0.93;0.93;;;;;12.40;96595.00;;;;5056087;28;20204;-55
2023/05/17 10:08:28;;;;;;;1.50;1.40;;;;;12.30;96600.00;;;;5055953;28;20208;-55
2023/05/17 10:11:02;;;;;;;2.40;1.17;;;;;12.50;96599.00;;;;5056019;28;20216;-55
2023/05/17 10:13:34;;;;;;;0.80;0.80;;;;;12.50;96604.00;;;;5056203;28;20184;-55
2023/05/17 10:16:02;;;;;;;0.97;0.93;;;;;12.40;96597.00;;;;5055835;28;20647;-55
2023/05/17 10:18:31;;;;;;;0.70;0.70;;;;;12.30;96612.00;;;;5056457;28;20196;-55
2023/05/17 10:21:00;;;;;;;0.87;0.87;;;;;12.10;96608.00;;;;5056292;28;20192;-55
2023/05/17 10:23:29;;;;;;;0.90;0.90;;;;;12.00;96611.00;;;;5055572;28;20227;-55
2023/05/17 10:25:59;;;;;;;0.83;0.83;;;;;12.00;96608.00;;;;5055745;28;20192;-55
2023/05/17 10:28:28;;;;;;;0.50;0.50;;;;;11.90;96603.00;;;;5055698;28;20192;-55
2023/05/17 10:30:57;;;;;;;0.70;0.70;;;;;11.80;96614.00;;;;5056008;28;20223;-55
2023/05/17 10:33:26;;;;;;;0.80;0.80;;;;;11.90;96612.00;;;;5055438;28;20192;-55
2023/05/17 10:35:55;;;;;;;2.43;1.67;;;;;11.90;96612.00;;;;5055417;28;20192;-55
2023/05/17 10:38:23;;;;;;;1.30;1.20;;;;;11.80;96616.00;;;;5055510;28;20198;-56
2023/05/17 10:40:52;;;;;;;2.17;1.43;;;;;11.90;96616.00;;;;5055484;28;20188;-55
2023/05/17 10:43:22;;;;;;;1.17;1.17;;;;;11.80;96614.00;;;;5037429;28;20195;-55
2023/05/17 10:45:50;;;;;;;1.80;1.43;;;;;11.70;96608.00;;;;5037307;28;20203;-55
2023/05/17 10:48:19;;;;;;;0.90;0.90;;;;;11.80;96618.00;;;;5055411;28;20192;-55
2023/05/17 10:50:47;;;;;;;0.67;0.67;;;;;11.80;96622.00;;;;5037300;28;20222;-55
2023/05/17 10:53:14;;;;;;;0.73;0.73;;;;;11.90;96619.00;;;;5038051;28;20232;-55
2023/05/17 10:55:43;;;;;;;1.23;1.13;;;;;11.90;96615.00;;;;5055232;28;20216;-55
2023/05/17 10:58:18;;;;;;;5.60;1.13;;;;;11.90;96610.00;;;;5055319;28;20220;-55
2023/05/17 11:00:49;;;;;;;2.03;1.93;;;;;12.30;96605.00;;;;5055039;28;20176;-55
2023/05/17 11:03:19;;;;;;;0.77;0.77;;;;;12.60;96607.00;;;;5055763;28;20180;-55
2023/05/17 11:06:14;;;;;;;1.17;0.63;;;;;12.90;96604.00;;;;5054887;28;20730;-55
2023/05/17 11:08:46;;;;;;;4.13;1.23;;;;;13.00;96597.00;;;;5055214;28;20222;-54
2023/05/17 11:11:18;;;;;;;1.33;1.23;;;;;13.40;96602.00;;;;5055284;28;20200;-54
2023/05/17 11:13:51;;;;;;;1.00;0.90;;;;;13.70;96604.00;;;;5055204;28;20180;-55
2023/05/17 11:16:22;;;;;;;3.10;0.83;;;;;14.20;96578.00;;;;5055266;28;20223;-55
2023/05/17 11:18:51;;;;;;;0.80;0.80;;;;;14.00;96596.00;;;;5054830;28;20695;-55
2023/05/17 11:21:20;;;;;;;5.93;1.60;;;;;14.00;96612.00;;;;5036142;28;20215;-55
2023/05/17 11:23:48;;;;;;;0.80;0.80;;;;;14.00;96612.00;;;;5054979;28;20254;-55
2023/05/17 11:26:21;;;;;;;0.87;0.87;;;;;13.80;96605.00;;;;5054491;28;20674;-55
2023/05/17 11:28:59;;;;;;;1.13;1.13;;;;;13.40;96612.00;;;;5036664;28;20687;-55
2023/05/17 11:31:32;;;;;;;0.90;0.90;;;;;13.20;96615.00;;;;5054384;28;20204;-55
2023/05/17 11:34:00;;;;;;;0.60;0.60;;;;;13.00;96614.00;;;;5054988;28;20180;-55
2023/05/17 11:36:27;;;;;;;1.03;1.03;;;;;12.80;96621.00;;;;5054330;28;20200;-55
2023/05/17 11:39:11;;;;;;;0.73;0.73;;;;;12.70;96608.00;;;;5054199;28;20218;-55
2023/05/17 11:41:40;;;;;;;0.93;0.93;;;;;12.60;96609.00;;;;5054262;28;20211;-55
2023/05/17 11:44:08;;;;;;;1.30;1.13;;;;;12.40;96606.00;;;;5054493;28;20274;-55
2023/05/17 11:46:39;;;;;;;1.60;1.50;;;;;12.50;96610.00;;;;5054177;28;20605;-55
2023/05/17 11:49:07;;;;;;;0.57;0.57;;;;;12.50;96611.00;;;;5054320;28;20208;-56
2023/05/17 11:51:35;;;;;;;1.43;1.33;;;;;12.70;96602.00;;;;5054755;28;20227;-56
2023/05/17 11:54:05;;;;;;;0.87;0.87;;;;;12.90;96603.00;;;;5054468;28;20204;-55
2023/05/17 11:56:35;;;;;;;1.83;1.73;;;;;12.90;96602.00;;;;5054105;28;20711;-55
2023/05/17 11:59:04;;;;;;;0.93;0.93;;;;;13.20;96596.00;;;;5053862;28;20251;-55
2023/05/17 12:01:44;;;;;;;0.60;0.60;;;;;13.40;96596.00;;;;5053840;28;20188;-56
2023/05/17 12:04:12;;;;;;;1.33;1.27;;;;;13.50;96596.00;;;;5054525;28;20180;-55
2023/05/17 12:06:40;;;;;;;0.70;0.70;;;;;13.60;96606.00;;;;5053754;28;20188;-56
2023/05/17 12:09:09;;;;;;;1.17;0.93;;;;;13.60;96604.00;;;;5053476;28;20231;-56
2023/05/17 12:11:41;;;;;;;1.47;1.37;;;;;13.50;96606.00;;;;5054372;28;20315;-56
2023/05/17 12:14:08;;;;;;;3.00;1.03;;;;;13.40;96603.00;;;;5054291;28;20234;-56
2023/05/17 12:16:39;;;;;;;1.40;1.33;;;;;13.60;96611.00;;;;5053556;28;20750;-56
2023/05/17 12:19:18;;;;;;;1.90;1.77;;;;;13.40;96598.00;;;;5053470;28;20215;-56
2023/05/17 12:21:46;;;;;;;3.87;2.00;;;;;13.60;96604.00;;;;5053814;28;20513;-56
2023/05/17 12:24:14;;;;;;;0.63;0.63;;;;;13.80;96606.00;;;;5053780;28;20282;-56
2023/05/17 12:26:44;;;;;;;1.53;1.33;;;;;14.00;96596.00;;;;5053647;28;20612;-56
2023/05/17 12:29:12;;;;;;;1.67;1.13;;;;;14.40;96600.00;;;;5035419;28;20222;-56
2023/05/17 12:31:42;;;;;;;0.80;0.80;;;;;14.50;96595.00;;;;5053283;28;20691;-56